createdAt,value
2018-03-27T00:00:05.740Z,9.73
2018-03-27T00:01:48.917Z,15.90
2018-03-27T00:03:32.831Z,12.13
2018-03-27T00:05:16.152Z,13.40
2018-03-27T00:06:59.241Z,13.10
2018-03-27T00:08:42.376Z,9.27
2018-03-27T00:10:25.628Z,11.47
2018-03-27T00:12:08.750Z,12.03
2018-03-27T00:13:52.654Z,11.03
2018-03-27T00:15:35.800Z,14.60
2018-03-27T00:17:19.695Z,12.93
2018-03-27T00:19:02.956Z,14.43
2018-03-27T00:20:46.980Z,12.03
2018-03-27T00:22:31.058Z,14.97
2018-03-27T00:24:14.159Z,9.30
2018-03-27T00:25:58.155Z,14.93
2018-03-27T00:27:59.297Z,13.33
2018-03-27T00:30:00.207Z,11.53
2018-03-27T00:32:01.420Z,11.17
2018-03-27T00:34:02.526Z,8.60
2018-03-27T00:36:04.588Z,9.93
2018-03-27T00:38:05.672Z,10.07
2018-03-27T00:40:06.864Z,15.03
2018-03-27T00:44:35.396Z,8.97
2018-03-27T00:46:18.497Z,12.03
2018-03-27T00:48:01.617Z,9.97
2018-03-27T00:49:44.781Z,13.27
2018-03-27T00:51:28.002Z,9.67
2018-03-27T00:53:11.117Z,11.37
2018-03-27T00:54:54.332Z,11.83
2018-03-27T00:56:37.553Z,14.03
2018-03-27T00:58:20.747Z,12.17
2018-03-27T01:00:03.875Z,10.00
2018-03-27T01:01:47.009Z,10.63
2018-03-27T01:03:30.137Z,10.40
2018-03-27T01:05:13.330Z,9.07
2018-03-27T01:06:56.450Z,9.30
2018-03-27T01:08:39.559Z,8.27
2018-03-27T01:10:22.698Z,10.30
2018-03-27T01:12:05.876Z,9.63
2018-03-27T01:13:49.035Z,10.10
2018-03-27T01:15:32.158Z,9.73
2018-03-27T01:17:16.316Z,10.30
2018-03-27T01:19:00.206Z,10.20
2018-03-27T01:20:43.489Z,9.57
2018-03-27T01:22:26.649Z,8.67
2018-03-27T01:24:09.854Z,8.40
2018-03-27T01:25:52.984Z,9.47
2018-03-27T01:27:36.195Z,13.23
2018-03-27T01:29:19.324Z,11.80
2018-03-27T01:31:02.429Z,12.60
2018-03-27T01:32:45.565Z,11.00
2018-03-27T01:34:28.666Z,14.87
2018-03-27T01:36:11.908Z,12.50
2018-03-27T01:37:55.843Z,12.23
2018-03-27T01:39:39.135Z,11.10
2018-03-27T01:41:22.257Z,13.50
2018-03-27T01:43:05.483Z,9.10
2018-03-27T01:44:48.692Z,11.43
2018-03-27T01:46:31.840Z,19.70
2018-03-27T01:48:15.798Z,11.83
2018-03-27T01:49:58.947Z,8.93
2018-03-27T01:51:42.212Z,8.40
2018-03-27T01:53:26.225Z,8.83
2018-03-27T01:55:09.337Z,9.03
2018-03-27T01:56:52.537Z,15.03
2018-03-27T01:58:35.682Z,13.13
2018-03-27T02:00:18.849Z,8.30
2018-03-27T02:02:03.046Z,14.83
2018-03-27T02:03:46.178Z,8.33
2018-03-27T02:05:30.073Z,12.43
2018-03-27T02:07:13.182Z,12.03
2018-03-27T02:08:56.303Z,16.60
2018-03-27T02:10:38.865Z,9.80
2018-03-27T02:12:27.793Z,11.37
2018-03-27T02:14:17.284Z,12.57
2018-03-27T02:16:05.897Z,10.20
2018-03-27T02:17:54.555Z,9.77
2018-03-27T02:19:43.985Z,14.17
2018-03-27T02:21:26.507Z,11.10
2018-03-27T02:23:13.432Z,10.00
2018-03-27T02:24:57.361Z,7.63
2018-03-27T02:26:41.273Z,15.60
2018-03-27T02:28:24.386Z,11.00
2018-03-27T02:30:07.508Z,10.47
2018-03-27T02:31:50.646Z,13.30
2018-03-27T02:33:34.540Z,7.13
2018-03-27T02:35:17.656Z,11.10
2018-03-27T02:37:00.778Z,11.10
2018-03-27T02:38:43.892Z,7.80
2018-03-27T02:40:27.010Z,11.27
2018-03-27T02:42:10.129Z,11.77
2018-03-27T02:43:53.244Z,9.50
2018-03-27T02:45:36.483Z,11.30
2018-03-27T02:47:19.607Z,10.00
2018-03-27T02:49:03.520Z,7.83
2018-03-27T02:50:46.642Z,9.63
2018-03-27T02:52:29.758Z,9.37
2018-03-27T02:54:14.127Z,13.63
2018-03-27T02:55:58.365Z,14.97
2018-03-27T02:57:41.511Z,10.40
2018-03-27T02:59:24.682Z,12.63
2018-03-27T03:01:07.844Z,8.53
2018-03-27T03:02:51.133Z,19.43
2018-03-27T03:04:34.250Z,12.77
2018-03-27T03:06:18.149Z,14.00
2018-03-27T03:08:01.264Z,9.97
2018-03-27T03:09:44.416Z,12.07
2018-03-27T03:11:27.549Z,8.83
2018-03-27T03:13:11.428Z,11.40
2018-03-27T03:14:54.533Z,15.27
2018-03-27T03:16:37.680Z,9.77
2018-03-27T03:18:20.801Z,13.33
2018-03-27T03:20:03.999Z,12.60
2018-03-27T03:21:47.254Z,9.60
2018-03-27T03:23:31.124Z,12.20
2018-03-27T03:25:14.248Z,9.70
2018-03-27T03:26:57.359Z,8.50
2018-03-27T03:28:40.475Z,9.80
2018-03-27T03:30:23.621Z,19.40
2018-03-27T03:32:06.793Z,8.87
2018-03-27T03:33:50.663Z,16.50
2018-03-27T03:35:33.792Z,11.10
2018-03-27T03:37:16.921Z,14.30
2018-03-27T03:39:00.041Z,9.27
2018-03-27T03:40:43.182Z,13.17
2018-03-27T03:42:27.083Z,23.37
2018-03-27T03:44:10.403Z,10.53
2018-03-27T03:45:53.526Z,12.50
2018-03-27T03:47:36.792Z,14.07
2018-03-27T03:49:19.969Z,11.10
2018-03-27T03:51:03.862Z,14.40
2018-03-27T03:52:47.937Z,21.40
2018-03-27T03:54:31.048Z,12.17
2018-03-27T03:56:14.153Z,17.17
2018-03-27T03:57:57.391Z,14.90
2018-03-27T03:59:40.510Z,19.50
2018-03-27T04:01:23.637Z,20.77
2018-03-27T04:03:07.527Z,12.27
2018-03-27T04:04:50.668Z,12.30
2018-03-27T04:06:33.776Z,16.97
2018-03-27T04:08:16.996Z,14.30
2018-03-27T04:10:00.149Z,11.47
2018-03-27T04:11:44.047Z,11.67
2018-03-27T04:13:27.160Z,13.50
2018-03-27T04:15:10.261Z,12.40
2018-03-27T04:16:53.728Z,18.63
2018-03-27T04:18:36.837Z,15.43
2018-03-27T04:20:19.968Z,9.83
2018-03-27T04:22:03.871Z,20.23
2018-03-27T04:23:47.006Z,11.40
2018-03-27T04:25:30.106Z,13.77
2018-03-27T04:27:13.233Z,29.10
2018-03-27T04:28:56.475Z,15.43
2018-03-27T04:30:40.370Z,16.70
2018-03-27T04:32:23.515Z,17.20
2018-03-27T04:34:06.633Z,14.70
2018-03-27T04:35:49.915Z,18.73
2018-03-27T04:37:33.036Z,14.50
2018-03-27T04:39:16.158Z,16.00
2018-03-27T04:40:59.297Z,11.53
2018-03-27T04:42:44.002Z,13.03
2018-03-27T04:44:27.173Z,16.97
2018-03-27T04:46:10.392Z,15.03
2018-03-27T04:47:53.562Z,19.80
2018-03-27T04:49:36.709Z,11.23
2018-03-27T04:51:19.920Z,18.37
2018-03-27T04:53:03.050Z,17.90
2018-03-27T04:54:46.161Z,13.70
2018-03-27T04:56:29.397Z,14.73
2018-03-27T04:58:12.587Z,20.43
2018-03-27T04:59:55.725Z,13.90
2018-03-27T05:01:39.656Z,15.70
2018-03-27T05:03:23.544Z,13.40
2018-03-27T05:05:06.653Z,17.63
2018-03-27T05:06:49.772Z,20.57
2018-03-27T05:08:32.888Z,16.80
2018-03-27T05:10:16.002Z,18.17
2018-03-27T05:11:59.116Z,13.50
2018-03-27T05:13:42.240Z,15.63
2018-03-27T05:15:25.357Z,13.70
2018-03-27T05:17:08.603Z,11.27
2018-03-27T05:18:51.955Z,13.60
2018-03-27T05:20:35.087Z,22.50
2018-03-27T05:22:19.009Z,16.50
2018-03-27T05:24:02.926Z,13.77
2018-03-27T05:25:46.024Z,19.60
2018-03-27T05:27:29.223Z,16.63
2018-03-27T05:29:12.379Z,16.17
2018-03-27T05:30:55.516Z,25.40
2018-03-27T05:32:39.434Z,15.37
2018-03-27T05:34:22.665Z,15.47
2018-03-27T05:36:06.597Z,22.27
2018-03-27T05:37:49.819Z,18.60
2018-03-27T05:39:33.725Z,24.77
2018-03-27T05:41:16.839Z,22.53
2018-03-27T05:42:59.983Z,22.10
2018-03-27T05:44:43.269Z,19.43
2018-03-27T05:46:26.396Z,20.40
2018-03-27T05:48:09.517Z,17.90
2018-03-27T05:49:52.734Z,15.83
2018-03-27T05:51:35.869Z,26.83
2018-03-27T05:53:19.064Z,20.03
2018-03-27T05:55:02.194Z,15.57
2018-03-27T05:56:46.064Z,17.53
2018-03-27T05:58:29.946Z,16.60
2018-03-27T06:00:13.304Z,20.63
2018-03-27T06:01:57.172Z,26.80
2018-03-27T06:03:40.270Z,30.77
2018-03-27T06:05:24.235Z,20.07
2018-03-27T06:07:07.461Z,15.90
2018-03-27T06:08:50.582Z,18.30
2018-03-27T06:10:33.701Z,22.13
2018-03-27T06:12:16.805Z,20.67
2018-03-27T06:14:00.251Z,16.53
2018-03-27T06:15:43.530Z,21.07
2018-03-27T06:17:26.641Z,18.37
2018-03-27T06:19:09.764Z,15.30
2018-03-27T06:20:52.885Z,25.70
2018-03-27T06:22:36.004Z,21.63
2018-03-27T06:24:19.138Z,30.57
2018-03-27T06:26:02.272Z,21.10
2018-03-27T06:27:45.408Z,18.67
2018-03-27T06:29:29.302Z,20.47
2018-03-27T06:31:12.460Z,30.03
2018-03-27T06:32:55.636Z,33.23
2018-03-27T06:34:38.864Z,28.47
2018-03-27T06:36:21.985Z,25.80
2018-03-27T06:38:05.117Z,26.57
2018-03-27T06:39:48.250Z,25.77
2018-03-27T06:41:32.148Z,24.10
2018-03-27T06:43:15.256Z,21.50
2018-03-27T06:44:58.396Z,27.47
2018-03-27T06:46:41.589Z,33.43
2018-03-27T06:48:24.703Z,21.93
2018-03-27T06:50:07.828Z,20.33
2018-03-27T06:51:50.937Z,22.13
2018-03-27T06:53:34.056Z,31.33
2018-03-27T06:55:17.185Z,19.23
2018-03-27T06:57:00.415Z,22.97
2018-03-27T06:58:43.653Z,16.67
2018-03-27T07:00:26.846Z,16.60
2018-03-27T07:02:09.952Z,19.63
2018-03-27T07:03:53.055Z,22.03
2018-03-27T07:05:36.255Z,23.80
2018-03-27T07:07:19.339Z,20.90
2018-03-27T07:09:02.537Z,31.57
2018-03-27T07:10:45.713Z,16.33
2018-03-27T07:12:28.838Z,15.33
2018-03-27T07:14:11.967Z,19.77
2018-03-27T07:15:55.138Z,18.53
2018-03-27T07:17:39.060Z,23.60
2018-03-27T07:19:22.163Z,24.50
2018-03-27T07:21:05.300Z,25.30
2018-03-27T07:22:49.216Z,28.67
2018-03-27T07:24:32.441Z,26.40
2018-03-27T07:26:15.597Z,29.60
2018-03-27T07:27:58.719Z,28.07
2018-03-27T07:29:41.842Z,37.70
2018-03-27T07:31:25.192Z,30.93
2018-03-27T07:33:08.430Z,31.87
2018-03-27T07:34:51.632Z,35.93
2018-03-27T07:36:34.844Z,41.33
2018-03-27T07:38:18.044Z,29.13
2018-03-27T07:40:01.165Z,30.57
2018-03-27T07:41:44.305Z,27.73
2018-03-27T07:43:27.546Z,28.83
2018-03-27T07:45:11.448Z,29.00
2018-03-27T07:46:54.613Z,33.00
2018-03-27T07:48:38.496Z,28.33
2018-03-27T07:50:21.621Z,31.90
2018-03-27T07:52:04.848Z,30.03
2018-03-27T07:53:48.058Z,33.60
2018-03-27T07:55:31.284Z,38.80
2018-03-27T07:57:14.412Z,31.60
2018-03-27T07:58:57.536Z,25.30
2018-03-27T08:00:40.663Z,27.80
2018-03-27T08:02:24.563Z,30.77
2018-03-27T08:04:07.855Z,25.43
2018-03-27T08:05:51.720Z,28.40
2018-03-27T08:07:35.629Z,20.63
2018-03-27T08:09:18.784Z,23.20
2018-03-27T08:11:02.274Z,20.30
2018-03-27T08:12:46.138Z,21.93
2018-03-27T08:14:29.248Z,23.27
2018-03-27T08:16:13.020Z,29.00
2018-03-27T08:17:56.220Z,25.90
2018-03-27T08:19:40.120Z,19.80
2018-03-27T08:21:23.371Z,23.63
2018-03-27T08:23:06.490Z,28.03
2018-03-27T08:24:50.413Z,30.87
2018-03-27T08:26:33.582Z,31.10
2018-03-27T08:28:16.682Z,26.50
2018-03-27T08:29:59.810Z,20.83
2018-03-27T08:31:42.990Z,23.70
2018-03-27T08:33:26.908Z,20.27
2018-03-27T08:35:10.024Z,23.90
2018-03-27T08:36:53.233Z,19.63
2018-03-27T08:38:36.349Z,16.20
2018-03-27T08:40:19.508Z,16.77
2018-03-27T08:42:03.557Z,17.10
2018-03-27T08:43:46.673Z,19.97
2018-03-27T08:45:29.812Z,23.83
2018-03-27T08:47:12.980Z,25.17
2018-03-27T08:48:56.402Z,22.73
2018-03-27T08:50:39.529Z,23.83
2018-03-27T08:52:23.443Z,18.97
2018-03-27T08:54:06.622Z,17.67
2018-03-27T08:55:50.465Z,28.27
2018-03-27T08:57:33.608Z,17.83
2018-03-27T08:59:16.812Z,23.80
2018-03-27T09:01:00.041Z,13.60
2018-03-27T09:02:43.178Z,16.37
2018-03-27T09:04:27.069Z,13.63
2018-03-27T09:06:10.218Z,23.47
2018-03-27T09:07:53.350Z,14.17
2018-03-27T09:09:36.564Z,13.07
2018-03-27T09:11:20.500Z,14.87
2018-03-27T09:13:04.398Z,11.60
2018-03-27T09:14:47.558Z,15.83
2018-03-27T09:16:31.457Z,10.53
2018-03-27T09:18:15.293Z,11.43
2018-03-27T09:19:58.431Z,17.30
2018-03-27T09:21:41.654Z,12.97
2018-03-27T09:23:24.841Z,17.53
2018-03-27T09:25:07.935Z,14.30
2018-03-27T09:26:51.068Z,18.80
2018-03-27T09:28:34.377Z,15.80
2018-03-27T09:30:18.210Z,13.80
2018-03-27T09:32:01.446Z,19.20
2018-03-27T09:33:44.599Z,13.63
2018-03-27T09:35:27.815Z,13.37
2018-03-27T09:37:11.720Z,14.60
2018-03-27T09:38:54.841Z,12.43
2018-03-27T09:40:38.065Z,12.47
2018-03-27T09:42:21.290Z,12.17
2018-03-27T09:44:05.236Z,11.03
2018-03-27T09:45:48.350Z,19.37
2018-03-27T09:47:32.968Z,12.73
2018-03-27T09:49:16.118Z,12.63
2018-03-27T09:50:59.239Z,14.73
2018-03-27T09:52:43.141Z,14.23
2018-03-27T09:54:26.374Z,15.60
2018-03-27T09:56:09.713Z,19.07
2018-03-27T09:57:52.836Z,20.00
2018-03-27T09:59:36.732Z,15.70
2018-03-27T10:03:30.229Z,18.53
2018-03-27T10:05:13.353Z,18.73
2018-03-27T10:06:56.547Z,19.30
2018-03-27T10:08:39.728Z,23.93
2018-03-27T10:10:22.842Z,22.90
2018-03-27T10:12:05.989Z,16.00
2018-03-27T10:13:49.117Z,21.83
2018-03-27T10:15:32.256Z,17.20
2018-03-27T10:17:15.457Z,27.17
2018-03-27T10:18:58.688Z,22.30
2018-03-27T10:20:41.897Z,25.13
2018-03-27T10:22:25.106Z,16.70
2018-03-27T10:24:08.433Z,22.53
2018-03-27T10:25:51.567Z,26.57
2018-03-27T10:27:34.784Z,16.93
2018-03-27T10:29:18.634Z,15.03
2018-03-27T10:31:01.792Z,17.20
2018-03-27T10:32:44.969Z,26.27
2018-03-27T10:34:28.981Z,17.30
2018-03-27T10:36:12.114Z,22.40
2018-03-27T10:37:55.302Z,18.37
2018-03-27T10:39:38.544Z,21.63
2018-03-27T10:41:21.760Z,16.20
2018-03-27T10:43:04.915Z,15.00
2018-03-27T10:44:48.477Z,17.40
2018-03-27T10:46:31.599Z,17.73
2018-03-27T10:48:14.731Z,19.47
2018-03-27T10:49:57.878Z,19.67
2018-03-27T10:51:41.020Z,14.90
2018-03-27T10:53:24.140Z,21.10
2018-03-27T10:55:07.257Z,21.13
2018-03-27T10:56:50.370Z,16.63
2018-03-27T10:58:33.626Z,18.90
2018-03-27T11:00:16.845Z,15.43
2018-03-27T11:02:00.080Z,17.13
2018-03-27T11:03:43.985Z,14.73
2018-03-27T11:05:27.124Z,12.80
2018-03-27T11:07:11.038Z,12.83
2018-03-27T11:08:54.273Z,12.00
2018-03-27T11:10:37.497Z,11.27
2018-03-27T11:12:20.631Z,11.50
2018-03-27T11:14:04.534Z,13.80
2018-03-27T11:15:47.670Z,12.17
2018-03-27T11:17:30.849Z,12.30
2018-03-27T11:19:14.024Z,13.47
2018-03-27T11:20:57.920Z,17.30
2018-03-27T11:22:41.069Z,11.73
2018-03-27T11:24:25.004Z,18.67
2018-03-27T11:26:08.201Z,12.13
2018-03-27T11:27:52.969Z,15.70
2018-03-27T11:29:36.107Z,10.60
2018-03-27T11:31:19.269Z,11.07
2018-03-27T11:33:02.415Z,10.50
2018-03-27T11:34:45.576Z,10.47
2018-03-27T11:36:28.856Z,11.13
2018-03-27T11:38:11.988Z,10.33
2018-03-27T11:39:55.886Z,11.00
2018-03-27T11:41:39.015Z,11.00
2018-03-27T11:43:22.133Z,10.77
2018-03-27T11:45:05.272Z,11.50
2018-03-27T11:46:49.173Z,10.73
2018-03-27T11:48:33.827Z,10.70
2018-03-27T11:50:17.056Z,10.30
2018-03-27T11:52:00.249Z,10.87
2018-03-27T11:53:43.394Z,11.70
2018-03-27T11:55:26.517Z,11.53
2018-03-27T11:57:09.627Z,10.70
2018-03-27T11:58:52.877Z,9.73
2018-03-27T12:00:36.002Z,12.90
2018-03-27T12:02:19.144Z,14.77
2018-03-27T12:04:02.286Z,13.43
2018-03-27T12:05:46.933Z,13.93
2018-03-27T12:07:30.117Z,13.20
2018-03-27T12:09:13.289Z,14.60
2018-03-27T12:10:57.168Z,15.47
2018-03-27T12:12:40.316Z,10.43
2018-03-27T12:14:23.518Z,10.97
2018-03-27T12:16:06.653Z,9.30
2018-03-27T12:17:49.797Z,10.83
2018-03-27T12:19:33.697Z,10.53
2018-03-27T12:21:16.810Z,9.73
2018-03-27T12:22:59.912Z,9.30
2018-03-27T12:24:43.042Z,10.97
2018-03-27T12:26:26.161Z,11.67
2018-03-27T12:28:09.284Z,12.13
2018-03-27T12:29:52.436Z,10.07
2018-03-27T12:31:36.356Z,10.33
2018-03-27T12:33:19.564Z,14.13
2018-03-27T12:35:03.509Z,8.97
2018-03-27T12:36:46.648Z,17.00
2018-03-27T12:38:30.544Z,13.33
2018-03-27T12:40:13.690Z,13.30
2018-03-27T12:41:57.577Z,13.60
2018-03-27T12:43:40.712Z,10.73
2018-03-27T12:45:23.836Z,11.10
2018-03-27T12:47:07.055Z,11.60
2018-03-27T12:48:50.169Z,11.87
2018-03-27T12:50:34.816Z,11.13
2018-03-27T12:52:18.039Z,12.33
2018-03-27T12:54:01.264Z,11.60
2018-03-27T12:55:45.205Z,18.93
2018-03-27T12:57:29.133Z,11.73
2018-03-27T12:59:12.283Z,13.60
2018-03-27T13:00:56.196Z,31.17
2018-03-27T13:02:39.333Z,20.80
2018-03-27T13:04:23.265Z,11.93
2018-03-27T13:06:07.184Z,11.10
2018-03-27T13:07:50.421Z,11.00
2018-03-27T13:09:34.294Z,10.80
2018-03-27T13:11:17.443Z,11.10
2018-03-27T13:13:00.586Z,11.13
2018-03-27T13:14:44.503Z,14.10
2018-03-27T13:16:27.660Z,15.57
2018-03-27T13:18:10.774Z,12.70
2018-03-27T13:19:53.965Z,11.80
2018-03-27T13:21:37.895Z,11.83
2018-03-27T13:23:21.778Z,11.73
2018-03-27T13:25:04.951Z,14.63
2018-03-27T13:26:48.849Z,9.70
2018-03-27T13:28:32.791Z,10.30
2018-03-27T13:30:15.916Z,9.20
2018-03-27T13:32:00.565Z,10.30
2018-03-27T13:33:43.817Z,10.30
2018-03-27T13:35:27.817Z,10.43
2018-03-27T13:37:10.950Z,13.10
2018-03-27T13:38:54.157Z,11.63
2018-03-27T13:40:37.281Z,12.17
2018-03-27T13:42:21.899Z,9.50
2018-03-27T13:44:05.016Z,9.23
2018-03-27T13:45:48.182Z,9.80
2018-03-27T13:47:32.067Z,8.57
2018-03-27T13:49:15.201Z,9.93
2018-03-27T13:50:58.443Z,8.37
2018-03-27T13:52:41.651Z,7.97
2018-03-27T13:54:25.603Z,10.27
2018-03-27T13:56:08.922Z,8.77
2018-03-27T13:57:52.793Z,8.13
2018-03-27T13:59:35.958Z,9.50
2018-03-27T14:01:19.893Z,9.30
2018-03-27T14:03:03.027Z,7.00
2018-03-27T14:04:46.901Z,5.77
2018-03-27T14:06:30.097Z,10.43
2018-03-27T14:08:13.288Z,5.93
2018-03-27T14:09:56.544Z,6.30
2018-03-27T14:11:39.666Z,10.83
2018-03-27T14:13:22.853Z,8.60
2018-03-27T14:15:06.748Z,13.30
2018-03-27T14:16:49.868Z,7.67
2018-03-27T14:18:33.020Z,7.30
2018-03-27T14:20:16.906Z,8.00
2018-03-27T14:22:00.042Z,8.90
2018-03-27T14:23:43.269Z,7.50
2018-03-27T14:25:27.201Z,8.73
2018-03-27T14:27:11.834Z,8.70
2018-03-27T14:28:54.996Z,8.13
2018-03-27T14:30:38.967Z,8.63
2018-03-27T14:32:22.801Z,9.10
2018-03-27T14:34:05.960Z,9.27
2018-03-27T14:35:49.193Z,9.00
2018-03-27T14:37:32.308Z,9.73
2018-03-27T14:39:16.299Z,8.10
2018-03-27T14:40:59.455Z,9.30
2018-03-27T14:42:42.647Z,8.07
2018-03-27T14:44:25.779Z,8.40
2018-03-27T14:46:09.010Z,7.60
2018-03-27T14:47:52.118Z,7.33
2018-03-27T14:49:35.247Z,9.37
2018-03-27T14:51:19.150Z,8.50
2018-03-27T14:53:02.292Z,11.87
2018-03-27T14:54:46.179Z,9.70
2018-03-27T14:56:29.325Z,9.17
2018-03-27T14:58:12.458Z,8.97
2018-03-27T14:59:55.584Z,9.90
2018-03-27T15:01:39.497Z,8.93
2018-03-27T15:03:22.613Z,9.10
2018-03-27T15:05:05.754Z,9.90
2018-03-27T15:06:48.946Z,9.60
2018-03-27T15:08:32.066Z,9.67
2018-03-27T15:10:15.180Z,8.43
2018-03-27T15:11:58.315Z,10.60
2018-03-27T15:13:42.188Z,9.80
2018-03-27T15:15:25.373Z,13.93
2018-03-27T15:17:08.576Z,24.20
2018-03-27T15:18:52.484Z,27.37
2018-03-27T15:20:35.614Z,25.57
2018-03-27T15:22:18.756Z,13.57
2018-03-27T15:24:02.707Z,14.07
2018-03-27T15:25:46.582Z,8.53
2018-03-27T15:27:29.750Z,10.10
2018-03-27T15:29:13.648Z,9.00
2018-03-27T15:30:56.760Z,8.60
2018-03-27T15:32:39.882Z,12.33
2018-03-27T15:34:23.101Z,57.93
2018-03-27T15:36:06.271Z,68.97
2018-03-27T15:37:49.467Z,30.63
2018-03-27T15:39:33.349Z,12.57
2018-03-27T15:41:16.468Z,7.80
2018-03-27T15:42:59.590Z,8.50
2018-03-27T15:44:42.708Z,6.43
2018-03-27T15:46:25.868Z,8.07
2018-03-27T15:48:09.777Z,10.07
2018-03-27T15:49:52.916Z,13.00
2018-03-27T15:51:36.039Z,9.27
2018-03-27T15:53:20.132Z,7.70
2018-03-27T15:55:03.265Z,7.53
2018-03-27T15:56:46.503Z,8.10
2018-03-27T15:58:29.605Z,12.00
2018-03-27T16:00:12.738Z,6.13
2018-03-27T16:01:56.689Z,7.17
2018-03-27T16:03:40.720Z,6.50
2018-03-27T16:05:24.626Z,7.50
2018-03-27T16:07:07.877Z,7.17
2018-03-27T16:08:51.103Z,10.23
2018-03-27T16:10:34.983Z,9.07
2018-03-27T16:12:18.143Z,7.10
2018-03-27T16:14:02.030Z,10.07
2018-03-27T16:15:45.144Z,8.87
2018-03-27T16:17:28.298Z,8.40
2018-03-27T16:19:12.916Z,8.73
2018-03-27T16:20:56.101Z,8.77
2018-03-27T16:22:39.293Z,7.10
2018-03-27T16:24:23.194Z,8.10
2018-03-27T16:26:06.310Z,7.87
2018-03-27T16:27:49.536Z,9.80
2018-03-27T16:29:32.645Z,10.47
2018-03-27T16:31:15.781Z,7.10
2018-03-27T16:32:58.922Z,6.43
2018-03-27T16:34:42.834Z,9.07
2018-03-27T16:36:25.944Z,6.93
2018-03-27T16:38:10.585Z,6.60
2018-03-27T16:39:53.709Z,5.90
2018-03-27T16:41:36.817Z,23.40
2018-03-27T16:43:19.970Z,5.73
2018-03-27T16:45:03.857Z,5.77
2018-03-27T16:46:47.003Z,6.67
2018-03-27T16:48:30.219Z,6.93
2018-03-27T16:50:13.353Z,5.60
2018-03-27T16:51:57.240Z,6.07
2018-03-27T16:53:40.361Z,9.30
2018-03-27T16:55:23.515Z,5.07
2018-03-27T16:57:07.400Z,6.10
2018-03-27T16:58:50.549Z,6.20
2018-03-27T17:00:33.649Z,10.03
2018-03-27T17:02:16.756Z,7.00
2018-03-27T17:03:59.890Z,8.43
2018-03-27T17:05:43.115Z,5.77
2018-03-27T17:07:26.227Z,5.13
2018-03-27T17:09:09.463Z,4.90
2018-03-27T17:10:52.567Z,5.03
2018-03-27T17:12:35.708Z,4.63
2018-03-27T17:14:18.849Z,4.80
2018-03-27T17:16:02.003Z,5.53
2018-03-27T17:17:45.133Z,5.70
2018-03-27T17:19:28.360Z,7.30
2018-03-27T17:21:11.510Z,4.83
2018-03-27T17:22:55.392Z,4.03
2018-03-27T17:24:38.643Z,3.77
2018-03-27T17:26:22.573Z,5.50
2018-03-27T17:28:05.809Z,4.73
2018-03-27T17:29:49.712Z,3.90
2018-03-27T17:31:32.845Z,4.60
2018-03-27T17:33:15.952Z,4.20
2018-03-27T17:34:59.169Z,8.40
2018-03-27T17:36:42.292Z,4.10
2018-03-27T17:38:25.402Z,6.33
2018-03-27T17:40:08.742Z,6.90
2018-03-27T17:41:52.693Z,5.23
2018-03-27T17:43:35.806Z,6.73
2018-03-27T17:45:19.831Z,4.27
2018-03-27T17:47:03.766Z,4.83
2018-03-27T17:48:46.878Z,4.20
2018-03-27T17:50:30.004Z,4.57
2018-03-27T17:52:13.880Z,4.93
2018-03-27T17:53:57.030Z,4.77
2018-03-27T17:55:40.157Z,4.17
2018-03-27T17:57:23.360Z,6.17
2018-03-27T17:59:06.476Z,4.60
2018-03-27T18:00:49.645Z,5.13
2018-03-27T18:02:32.813Z,5.73
2018-03-27T18:04:16.141Z,5.70
2018-03-27T18:05:59.381Z,6.90
2018-03-27T18:07:43.271Z,4.53
2018-03-27T18:09:26.423Z,5.17
2018-03-27T18:11:10.325Z,7.60
2018-03-27T18:12:53.486Z,7.23
2018-03-27T18:14:36.605Z,4.83
2018-03-27T18:16:20.505Z,4.60
2018-03-27T18:18:03.626Z,4.60
2018-03-27T18:19:46.746Z,4.40
2018-03-27T18:21:29.860Z,5.20
2018-03-27T18:23:13.833Z,5.07
2018-03-27T18:24:57.708Z,5.63
2018-03-27T18:26:40.831Z,6.60
2018-03-27T18:28:23.957Z,4.93
2018-03-27T18:30:07.137Z,10.70
2018-03-27T18:31:50.256Z,6.83
2018-03-27T18:33:33.397Z,5.43
2018-03-27T18:35:16.569Z,6.40
2018-03-27T18:37:00.460Z,5.27
2018-03-27T18:38:43.651Z,7.40
2018-03-27T18:40:26.810Z,9.37
2018-03-27T18:42:10.717Z,4.50
2018-03-27T18:43:53.829Z,7.13
2018-03-27T18:45:36.997Z,3.97
2018-03-27T18:47:20.891Z,4.57
2018-03-27T18:49:03.999Z,4.77
2018-03-27T18:50:47.113Z,4.93
2018-03-27T18:52:30.252Z,4.93
2018-03-27T18:54:13.366Z,5.37
2018-03-27T18:55:56.509Z,10.47
2018-03-27T18:57:39.636Z,4.40
2018-03-27T18:59:23.515Z,4.67
2018-03-27T19:01:07.296Z,6.80
2018-03-27T19:02:51.169Z,5.57
2018-03-27T19:04:34.332Z,6.13
2018-03-27T19:06:19.094Z,7.70
2018-03-27T19:08:02.207Z,6.67
2018-03-27T19:09:45.336Z,5.53
2018-03-27T19:11:29.245Z,6.60
2018-03-27T19:13:12.413Z,5.73
2018-03-27T19:14:55.541Z,5.23
2018-03-27T19:16:38.797Z,6.00
2018-03-27T19:18:22.033Z,6.33
2018-03-27T19:20:05.170Z,6.20
2018-03-27T19:21:49.085Z,6.53
2018-03-27T19:23:32.207Z,6.30
2018-03-27T19:25:16.095Z,14.03
2018-03-27T19:26:59.214Z,5.17
2018-03-27T19:28:42.375Z,9.23
2018-03-27T19:30:26.261Z,6.40
2018-03-27T19:32:09.420Z,8.17
2018-03-27T19:33:52.543Z,14.33
2018-03-27T19:35:36.475Z,6.10
2018-03-27T19:37:19.806Z,6.03
2018-03-27T19:39:03.694Z,6.87
2018-03-27T19:40:46.864Z,6.97
2018-03-27T19:42:30.762Z,8.67
2018-03-27T19:44:13.877Z,8.30
2018-03-27T19:45:57.033Z,20.53
2018-03-27T19:47:40.953Z,8.67
2018-03-27T19:49:24.861Z,6.70
2018-03-27T19:51:08.792Z,7.10
2018-03-27T19:52:52.434Z,6.97
2018-03-27T19:54:37.102Z,7.27
2018-03-27T19:56:20.317Z,10.70
2018-03-27T19:58:03.541Z,6.97
2018-03-27T19:59:47.131Z,7.80
2018-03-27T20:01:30.323Z,20.30
2018-03-27T20:03:13.441Z,7.67
2018-03-27T20:04:56.578Z,7.70
2018-03-27T20:06:39.733Z,7.23
2018-03-27T20:08:22.873Z,5.67
2018-03-27T20:10:06.078Z,6.50
2018-03-27T20:11:50.007Z,6.93
2018-03-27T20:13:33.888Z,7.80
2018-03-27T20:15:17.080Z,7.13
2018-03-27T20:17:00.295Z,7.90
2018-03-27T20:18:43.448Z,19.80
2018-03-27T20:20:26.548Z,7.00
2018-03-27T20:22:09.729Z,8.97
2018-03-27T20:23:53.603Z,8.73
2018-03-27T20:25:36.780Z,39.20
2018-03-27T20:27:19.956Z,6.70
2018-03-27T20:29:03.069Z,8.67
2018-03-27T20:30:46.189Z,6.77
2018-03-27T20:32:29.344Z,6.30
2018-03-27T20:34:12.460Z,6.27
2018-03-27T20:35:55.587Z,51.90
2018-03-27T20:37:39.483Z,7.70
2018-03-27T20:39:22.616Z,7.40
2018-03-27T20:41:05.855Z,7.70
2018-03-27T20:42:50.075Z,36.07
2018-03-27T20:44:33.296Z,6.03
2018-03-27T20:46:16.413Z,7.87
2018-03-27T20:47:59.596Z,7.00
2018-03-27T20:49:42.698Z,6.60
2018-03-27T20:51:25.858Z,6.10
2018-03-27T20:53:08.994Z,6.33
2018-03-27T20:54:52.234Z,6.07
2018-03-27T20:56:35.352Z,7.63
2018-03-27T20:58:18.756Z,6.07
2018-03-27T21:00:02.640Z,6.10
2018-03-27T21:01:45.753Z,6.60
2018-03-27T21:03:28.953Z,6.00
2018-03-27T21:05:12.134Z,6.10
2018-03-27T21:06:55.368Z,5.70
2018-03-27T21:08:39.263Z,5.67
2018-03-27T21:10:22.456Z,7.63
2018-03-27T21:12:05.575Z,5.57
2018-03-27T21:13:48.738Z,6.20
2018-03-27T21:15:31.861Z,5.90
2018-03-27T21:17:15.069Z,5.47
2018-03-27T21:18:58.267Z,6.00
2018-03-27T21:20:41.392Z,4.87
2018-03-27T21:22:24.526Z,5.50
2018-03-27T21:24:07.649Z,6.17
2018-03-27T21:25:50.970Z,35.87
2018-03-27T21:27:34.138Z,6.73
2018-03-27T21:29:17.715Z,5.97
2018-03-27T21:31:01.617Z,5.23
2018-03-27T21:32:45.352Z,6.23
2018-03-27T21:34:28.600Z,5.43
2018-03-27T21:36:11.719Z,8.97
2018-03-27T21:37:54.844Z,6.63
2018-03-27T21:39:39.593Z,6.20
2018-03-27T21:41:24.111Z,5.30
2018-03-27T21:43:07.268Z,5.93
2018-03-27T21:44:51.172Z,5.93
2018-03-27T21:46:34.312Z,7.17
2018-03-27T21:48:18.176Z,6.70
2018-03-27T21:50:02.288Z,7.30
2018-03-27T21:51:46.184Z,7.00
2018-03-27T21:53:29.347Z,6.07
2018-03-27T21:55:13.248Z,12.03
2018-03-27T21:56:57.047Z,5.97
2018-03-27T21:58:40.456Z,6.43
2018-03-27T22:00:23.632Z,5.80
2018-03-27T22:02:07.611Z,6.73
2018-03-27T22:03:50.822Z,6.10
2018-03-27T22:05:34.004Z,8.70
2018-03-27T22:07:17.980Z,10.03
2018-03-27T22:09:01.595Z,6.10
2018-03-27T22:10:45.586Z,11.23
2018-03-27T22:12:28.774Z,7.93
2018-03-27T22:14:11.920Z,6.63
2018-03-27T22:15:55.049Z,7.17
2018-03-27T22:17:38.165Z,6.70
2018-03-27T22:19:21.283Z,6.40
2018-03-27T22:21:04.407Z,6.33
2018-03-27T22:22:47.627Z,8.37
2018-03-27T22:24:30.747Z,6.63
2018-03-27T22:26:14.679Z,7.00
2018-03-27T22:27:57.796Z,7.50
2018-03-27T22:29:40.950Z,11.07
2018-03-27T22:31:24.095Z,11.63
2018-03-27T22:33:07.262Z,9.07
2018-03-27T22:34:51.144Z,7.63